createdAt,value
2019-05-13T00:02:17.960Z,15.20
2019-05-13T00:07:23.978Z,15.20
2019-05-13T00:12:29.544Z,15.40
2019-05-13T00:17:34.961Z,15.50
2019-05-13T00:22:40.475Z,15.60
2019-05-13T00:27:46.112Z,15.50
2019-05-13T00:32:51.531Z,15.50
2019-05-13T00:37:56.979Z,15.50
2019-05-13T00:43:03.748Z,15.50
2019-05-13T00:48:09.536Z,15.30
2019-05-13T00:53:15.013Z,15.20
2019-05-13T00:58:20.522Z,14.80
2019-05-13T01:03:28.356Z,14.40
2019-05-13T01:08:33.840Z,14.30
2019-05-13T01:13:39.733Z,14.10
2019-05-13T01:18:45.477Z,14.20
2019-05-13T01:23:50.874Z,13.80
2019-05-13T01:28:56.486Z,13.70
2019-05-13T01:34:03.955Z,13.50
2019-05-13T01:39:09.006Z,13.50
2019-05-13T01:44:15.366Z,13.30
2019-05-13T01:49:20.883Z,13.20
2019-05-13T01:54:26.528Z,12.90
2019-05-13T01:59:33.984Z,13.10
2019-05-13T02:04:39.083Z,13.30
2019-05-13T02:09:44.659Z,13.40
2019-05-13T02:14:50.063Z,14.00
2019-05-13T02:19:55.591Z,14.20
2019-05-13T02:25:01.048Z,14.40
2019-05-13T02:30:06.898Z,14.40
2019-05-13T02:35:13.924Z,14.20
2019-05-13T02:40:22.671Z,14.40
2019-05-13T02:45:26.925Z,14.40
2019-05-13T02:50:33.725Z,14.30
2019-05-13T02:55:43.433Z,14.10
2019-05-13T03:00:48.690Z,14.30
2019-05-13T03:05:54.372Z,14.20
2019-05-13T03:11:02.679Z,14.00
2019-05-13T03:16:24.641Z,13.70
2019-05-13T03:21:32.665Z,13.40
2019-05-13T03:26:37.090Z,13.70
2019-05-13T03:31:46.499Z,13.70
2019-05-13T03:36:55.894Z,13.60
2019-05-13T03:41:58.883Z,13.80
2019-05-13T03:47:05.126Z,13.70
2019-05-13T03:52:13.552Z,13.10
2019-05-13T03:57:17.692Z,13.20
2019-05-13T04:02:23.851Z,13.60
2019-05-13T04:07:32.384Z,13.20
2019-05-13T04:12:36.902Z,12.90
2019-05-13T04:17:42.926Z,12.70
2019-05-13T04:22:48.446Z,12.70
2019-05-13T04:27:54.182Z,12.70
2019-05-13T04:33:02.379Z,12.60
2019-05-13T04:38:10.215Z,12.80
2019-05-13T04:43:14.756Z,13.20
2019-05-13T04:48:22.922Z,13.10
2019-05-13T04:53:27.541Z,13.00
2019-05-13T04:58:35.822Z,12.90
2019-05-13T05:04:03.429Z,13.00
2019-05-13T05:10:10.234Z,13.10
2019-05-13T05:15:24.256Z,13.10
2019-05-13T05:20:51.918Z,13.20
2019-05-13T05:26:21.965Z,13.10
2019-05-13T05:32:02.159Z,13.30
2019-05-13T05:37:55.636Z,13.40
2019-05-13T05:43:04.402Z,13.90
2019-05-13T05:48:11.746Z,14.70
2019-05-13T05:53:21.869Z,15.20
2019-05-13T05:58:31.842Z,15.40
2019-05-13T06:03:38.962Z,15.70
2019-05-13T06:08:44.959Z,15.80
2019-05-13T06:13:54.390Z,15.90
2019-05-13T06:18:57.565Z,15.80
2019-05-13T06:24:03.200Z,15.90
2019-05-13T06:29:11.489Z,16.10
2019-05-13T06:34:17.179Z,16.10
2019-05-13T06:39:22.972Z,16.30
2019-05-13T06:44:28.526Z,16.40
2019-05-13T06:49:42.778Z,16.40
2019-05-13T07:00:34.642Z,17.10
2019-05-13T07:05:42.370Z,17.20
2019-05-13T07:10:52.909Z,17.20
2019-05-13T07:16:01.286Z,17.30
2019-05-13T07:21:06.403Z,17.20
2019-05-13T07:26:23.296Z,17.40
2019-05-13T07:32:42.043Z,17.40
2019-05-13T07:37:51.736Z,17.60
2019-05-13T07:49:39.100Z,17.60
2019-05-13T07:54:52.063Z,17.60
2019-05-13T07:59:57.747Z,17.60
2019-05-13T08:05:13.248Z,17.60
2019-05-13T08:10:22.057Z,17.70
2019-05-13T08:15:27.818Z,17.70
2019-05-13T08:20:34.926Z,17.80
2019-05-13T08:25:42.361Z,17.90
2019-05-13T08:30:51.608Z,17.90
2019-05-13T08:35:58.662Z,18.10
2019-05-13T08:41:02.993Z,18.20
2019-05-13T08:46:08.892Z,18.40
2019-05-13T08:51:14.296Z,18.20
2019-05-13T08:56:21.812Z,18.10
2019-05-13T09:01:26.862Z,18.00
2019-05-13T09:06:32.864Z,18.20
2019-05-13T09:11:38.472Z,18.00
2019-05-13T09:16:44.327Z,18.20
2019-05-13T09:21:52.445Z,18.10
2019-05-13T09:26:57.077Z,18.20
2019-05-13T09:32:03.911Z,18.40
2019-05-13T09:37:11.899Z,18.60
2019-05-13T09:42:16.944Z,18.50
2019-05-13T09:47:22.475Z,18.40
2019-05-13T09:52:27.859Z,18.60
2019-05-13T09:57:33.273Z,18.80
2019-05-13T10:02:38.813Z,18.80
2019-05-13T10:07:44.219Z,18.90
2019-05-13T10:13:07.448Z,19.00
2019-05-13T10:17:57.133Z,19.20
2019-05-13T10:23:02.784Z,19.40
2019-05-13T10:28:08.431Z,19.30
2019-05-13T10:33:13.902Z,19.50
2019-05-13T10:38:22.073Z,19.70
2019-05-13T10:43:31.744Z,20.10
2019-05-13T10:48:34.086Z,20.00
2019-05-13T10:53:42.608Z,19.90
2019-05-13T10:59:06.955Z,20.20
2019-05-13T11:04:15.113Z,20.30
2019-05-13T11:09:34.028Z,20.20
2019-05-13T11:15:06.421Z,20.90
2019-05-13T11:20:14.109Z,21.10
2019-05-13T11:30:42.355Z,22.00
2019-05-13T11:35:59.424Z,21.70
2019-05-13T11:41:06.613Z,22.10
2019-05-13T11:46:14.031Z,22.30
2019-05-13T11:51:33.048Z,22.40
2019-05-13T11:56:46.353Z,22.40
2019-05-13T12:02:03.914Z,23.50
2019-05-13T12:07:23.210Z,23.70
2019-05-13T12:12:33.572Z,23.70
2019-05-13T12:17:53.016Z,23.70
2019-05-13T12:22:57.220Z,23.80
2019-05-13T12:28:03.459Z,24.40
2019-05-13T12:33:13.301Z,24.50
2019-05-13T12:38:16.047Z,23.90
2019-05-13T12:43:24.039Z,24.30
2019-05-13T12:48:28.721Z,24.80
2019-05-13T12:53:34.286Z,25.20
2019-05-13T12:58:40.034Z,24.40
2019-05-13T13:03:45.457Z,23.90
2019-05-13T13:08:51.090Z,24.60
2019-05-13T13:13:59.878Z,24.70
2019-05-13T13:19:04.349Z,24.60
2019-05-13T13:24:11.694Z,25.90
2019-05-13T13:29:16.877Z,26.00
2019-05-13T13:34:25.879Z,26.60
2019-05-13T13:39:29.848Z,26.30
2019-05-13T13:44:36.377Z,26.50
2019-05-13T13:49:43.947Z,26.50
2019-05-13T13:54:58.914Z,26.80
2019-05-13T14:00:21.047Z,27.50
2019-05-13T14:05:05.513Z,26.00
2019-05-13T14:10:11.705Z,26.30
2019-05-13T14:15:24.573Z,26.20
2019-05-13T14:20:38.193Z,26.90
2019-05-13T14:25:43.665Z,27.30
2019-05-13T14:30:51.420Z,27.30
2019-05-13T14:35:57.131Z,26.80
2019-05-13T14:41:04.560Z,26.90
2019-05-13T14:46:14.315Z,27.00
2019-05-13T14:51:21.813Z,26.50
2019-05-13T14:56:26.951Z,27.00
2019-05-13T15:01:32.341Z,26.60
2019-05-13T15:06:38.087Z,26.70
2019-05-13T15:17:17.984Z,26.80
2019-05-13T15:22:24.151Z,25.40
2019-05-13T15:27:31.650Z,27.10
2019-05-13T15:32:42.040Z,27.90
2019-05-13T15:38:52.506Z,27.00
2019-05-13T15:43:54.865Z,25.70
2019-05-13T15:49:01.665Z,26.60
2019-05-13T15:54:08.842Z,27.40
2019-05-13T15:59:14.289Z,27.00
2019-05-13T16:04:21.370Z,25.70
2019-05-13T16:09:27.321Z,25.80
2019-05-13T16:14:32.964Z,27.00
2019-05-13T16:19:38.470Z,26.80
2019-05-13T16:24:45.770Z,25.80
2019-05-13T16:29:51.685Z,26.00
2019-05-13T16:34:57.383Z,26.70
2019-05-13T16:40:03.019Z,26.40
2019-05-13T16:45:18.229Z,27.50
2019-05-13T16:50:23.867Z,27.00
2019-05-13T16:55:29.440Z,25.90
2019-05-13T17:00:35.074Z,25.50
2019-05-13T17:05:52.894Z,26.30
2019-05-13T17:11:17.301Z,25.90
2019-05-13T17:16:22.687Z,25.30
2019-05-13T17:21:28.073Z,26.20
2019-05-13T17:26:33.466Z,25.00
2019-05-13T17:31:59.026Z,24.40
2019-05-13T17:37:07.246Z,23.80
2019-05-13T17:42:12.801Z,23.50
2019-05-13T17:47:18.179Z,23.00
2019-05-13T17:52:24.904Z,22.60
2019-05-13T17:57:32.060Z,22.70
2019-05-13T18:02:37.913Z,21.90
2019-05-13T18:07:43.397Z,20.50
2019-05-13T18:12:50.996Z,20.00
2019-05-13T18:17:56.034Z,20.00
2019-05-13T18:23:08.844Z,20.10
2019-05-13T18:28:27.718Z,20.30
2019-05-13T18:33:25.812Z,19.50
2019-05-13T18:38:36.309Z,18.90
2019-05-13T18:43:41.818Z,18.90
2019-05-13T18:48:58.527Z,18.60
2019-05-13T18:54:21.555Z,18.60
2019-05-13T18:59:32.176Z,18.50
2019-05-13T19:05:11.858Z,18.50
2019-05-13T19:10:53.922Z,18.80
2019-05-13T19:16:02.628Z,18.70
2019-05-13T19:21:08.471Z,18.20
2019-05-13T19:26:14.305Z,18.40
2019-05-13T19:31:21.937Z,18.10
2019-05-13T19:36:26.826Z,17.90
2019-05-13T19:41:42.365Z,17.60
2019-05-13T19:46:48.184Z,17.40
2019-05-13T19:51:53.706Z,17.60
2019-05-13T19:57:01.397Z,17.70
2019-05-13T20:02:07.898Z,17.40
2019-05-13T20:07:13.860Z,17.10
2019-05-13T20:12:21.196Z,17.00
2019-05-13T20:17:27.446Z,16.80
2019-05-13T20:22:33.819Z,16.70
2019-05-13T20:27:53.223Z,16.50
2019-05-13T20:33:02.314Z,16.70
2019-05-13T20:38:08.597Z,16.80
2019-05-13T20:43:14.851Z,16.90
2019-05-13T20:48:24.803Z,17.00
2019-05-13T20:53:31.105Z,17.10
2019-05-13T20:58:37.398Z,17.10
2019-05-13T21:03:42.955Z,17.20
2019-05-13T21:08:55.263Z,17.20
2019-05-13T21:14:01.213Z,17.10
2019-05-13T21:19:09.393Z,17.10
2019-05-13T21:24:14.810Z,17.10
2019-05-13T21:29:21.632Z,17.10
2019-05-13T21:34:27.285Z,17.00
2019-05-13T21:39:32.722Z,16.80
2019-05-13T21:44:38.126Z,16.90
2019-05-13T21:49:43.946Z,16.80
2019-05-13T21:54:51.498Z,16.80
2019-05-13T21:59:56.574Z,16.60
2019-05-13T22:05:02.000Z,16.60
2019-05-13T22:10:08.098Z,16.60
2019-05-13T22:15:13.963Z,16.60
2019-05-13T22:20:21.327Z,16.50
2019-05-13T22:25:26.457Z,16.60
2019-05-13T22:30:33.535Z,16.50
2019-05-13T22:35:42.662Z,16.50
2019-05-13T22:40:48.218Z,16.50
2019-05-13T22:45:54.001Z,16.60
2019-05-13T22:51:02.123Z,16.50
2019-05-13T22:56:07.602Z,16.60
2019-05-13T23:01:13.936Z,16.50
2019-05-13T23:06:21.462Z,16.50
2019-05-13T23:11:26.405Z,16.50
2019-05-13T23:16:31.939Z,16.30
2019-05-13T23:21:37.349Z,16.20
2019-05-13T23:26:43.364Z,16.20
2019-05-13T23:31:48.998Z,15.80
2019-05-13T23:36:54.430Z,15.70
2019-05-13T23:42:01.422Z,15.70
2019-05-13T23:47:07.127Z,15.70
2019-05-13T23:52:12.603Z,15.60
2019-05-13T23:57:18.095Z,15.30
